Time;durP1;ratioP1;P1;durP2;ratioP2;P2;SDS_P1;SDS_P2;PMS_P1;PMS_P2;Temp;Humidity;BMP_temperature;BMP_pressure;BME280_temperature;BME280_humidity;BME280_pressure;Samples;Min_cycle;Max_cycle;Signal;HPM_P1;HPM_P2
2024/04/04 00:00:09;;;;;;;;;1.00;1.00;;;;;12.82;78.35;99181.88;6312419;20;2735109;-46
2024/04/04 00:02:36;;;;;;;;;3.00;1.00;;;;;12.48;80.00;99179.13;6281269;20;2735773;-47
2024/04/04 00:05:03;;;;;;;;;3.00;3.00;;;;;12.25;85.27;99180.03;6279736;20;2755900;-47
2024/04/04 00:07:31;;;;;;;;;3.00;3.00;;;;;12.28;84.11;99172.56;6281125;20;2755687;-46
2024/04/04 00:09:57;;;;;;;;;1.50;1.50;;;;;12.46;84.66;99173.00;6284515;20;2739829;-46
2024/04/04 00:12:28;;;;;;;;;4.50;3.00;;;;;12.48;84.50;99168.34;6285013;20;2739969;-47
2024/04/04 00:14:55;;;;;;;;;4.00;4.00;;;;;12.19;87.30;99175.09;6286052;20;2756529;-47
2024/04/04 00:17:22;;;;;;;;;3.00;3.00;;;;;12.11;89.36;99164.06;6305345;20;1817151;-46
2024/04/04 00:19:49;;;;;;;;;1.50;1.50;;;;;12.21;89.33;99170.47;6316936;20;2738851;-46
2024/04/04 00:22:16;;;;;;;;;1.00;1.00;;;;;12.06;86.68;99165.28;6285859;20;2728420;-45
2024/04/04 00:24:42;;;;;;;;;1.00;1.00;;;;;12.24;86.56;99171.13;6288273;20;2731640;-48
2024/04/04 00:27:10;;;;;;;;;1.00;1.00;;;;;12.41;84.89;99160.88;6302049;20;1806645;-47
2024/04/04 00:29:36;;;;;;;;;1.00;1.00;;;;;12.61;83.40;99164.69;6317771;20;2727331;-47
2024/04/04 00:32:04;;;;;;;;;1.00;1.00;;;;;12.37;83.82;99170.16;6302942;20;1811896;-47
2024/04/04 00:34:32;;;;;;;;;1.75;1.00;;;;;12.67;80.97;99159.69;6332698;20;1805587;-46
2024/04/04 00:36:58;;;;;;;;;1.00;1.00;;;;;12.55;79.94;99165.16;6317975;20;2738797;-46
2024/04/04 00:39:25;;;;;;;;;1.00;1.00;;;;;12.54;81.26;99168.84;6301484;20;1803553;-47
2024/04/04 00:41:53;;;;;;;;;0.00;0.00;;;;;12.60;80.00;99173.75;6333810;20;1796182;-46
2024/04/04 00:44:21;;;;;;;;;1.00;1.00;;;;;12.54;81.33;99171.56;6333584;20;1804547;-47
2024/04/04 00:46:48;;;;;;;;;1.00;1.00;;;;;12.50;80.60;99169.06;6333808;20;1802446;-46
2024/04/04 00:49:15;;;;;;;;;1.00;1.00;;;;;12.59;78.82;99174.75;6331969;20;1800349;-47
2024/04/04 00:51:43;;;;;;;;;1.00;1.00;;;;;12.63;78.22;99178.88;6333579;20;1799464;-47
2024/04/04 00:54:09;;;;;;;;;4.00;4.00;;;;;12.51;80.11;99180.72;6316916;20;2754557;-47
2024/04/04 00:56:36;;;;;;;;;2.00;2.00;;;;;12.64;80.71;99184.16;6283113;20;2756515;-47
2024/04/04 00:59:06;;;;;;;;;1.00;1.00;;;;;12.45;87.15;99187.44;6301118;20;1800378;-47
2024/04/04 01:01:33;;;;;;;;;3.75;1.00;;;;;12.28;88.71;99190.56;6331770;20;1802853;-46
2024/04/04 01:04:00;;;;;;;;;1.25;1.25;;;;;12.08;89.82;99192.94;6332436;20;1800303;-48
2024/04/04 01:06:32;;;;;;;;;1.00;1.00;;;;;12.13;90.32;99194.41;6332809;20;1807707;-47
2024/04/04 01:09:00;;;;;;;;;0.00;0.00;;;;;12.15;89.21;99203.25;6329808;20;1802552;-47
2024/04/04 01:11:28;;;;;;;;;1.00;1.00;;;;;11.42;97.32;99199.63;6331523;20;1810077;-47
2024/04/04 01:13:55;;;;;;;;;1.00;1.00;;;;;11.48;99.70;99201.00;6332162;20;1800312;-46
2024/04/04 01:16:23;;;;;;;;;1.25;1.25;;;;;11.67;97.89;99200.53;6331572;20;1803471;-47
2024/04/04 01:18:50;;;;;;;;;1.00;1.00;;;;;11.44;100.00;99197.69;6332419;20;1797226;-47
2024/04/04 01:21:18;;;;;;;;;3.50;3.00;;;;;11.75;98.68;99207.06;6312232;20;2736746;-47
2024/04/04 01:23:44;;;;;;;;;4.00;4.00;;;;;11.83;95.59;99206.50;6286796;20;2746169;-47
2024/04/04 01:26:14;;;;;;;;;2.00;2.00;;;;;11.98;94.97;99208.06;6299687;20;1807669;-47
2024/04/04 01:28:40;;;;;;;;;3.00;3.00;;;;;11.85;95.44;99210.78;6312620;20;2756677;-47
2024/04/04 01:31:07;;;;;;;;;2.00;2.00;;;;;11.90;97.39;99221.25;6284244;20;2744035;-46
2024/04/04 01:33:34;;;;;;;;;0.00;0.00;;;;;11.82;98.26;99215.50;6302111;20;1803011;-45
2024/04/04 01:36:02;;;;;;;;;1.00;1.00;;;;;11.69;99.92;99215.59;6329090;20;1803829;-46
2024/04/04 01:38:29;;;;;;;;;2.00;2.00;;;;;11.72;100.00;99222.56;6330603;20;1797287;-46
2024/04/04 01:40:56;;;;;;;;;2.00;2.00;;;;;11.54;100.00;99225.63;6330053;20;1805621;-47
2024/04/04 01:43:23;;;;;;;;;1.00;1.00;;;;;11.55;100.00;99226.47;6314454;20;2730477;-51
2024/04/04 01:45:50;;;;;;;;;1.00;1.00;;;;;11.49;100.00;99227.78;6299717;20;1805654;-48
2024/04/04 01:48:17;;;;;;;;;2.00;2.00;;;;;11.16;100.00;99225.69;6314290;20;2741951;-47
2024/04/04 01:50:43;;;;;;;;;3.00;1.50;;;;;10.99;100.00;99208.09;6284400;20;2745118;-48
2024/04/04 01:53:11;;;;;;;;;1.50;1.50;;;;;11.06;100.00;99214.75;6300390;20;1794045;-47
2024/04/04 01:55:38;;;;;;;;;1.00;1.00;;;;;10.69;100.00;99206.63;6332978;20;1809757;-49
2024/04/04 01:58:05;;;;;;;;;1.00;1.00;;;;;10.52;100.00;99188.13;6328563;20;1809799;-48
2024/04/04 02:00:33;;;;;;;;;2.00;2.00;;;;;10.50;100.00;99184.69;6329531;20;1809730;-46
2024/04/04 02:02:59;;;;;;;;;3.50;3.50;;;;;10.41;100.00;99183.50;6315306;20;2744032;-47
2024/04/04 02:05:26;;;;;;;;;2.00;2.00;;;;;10.47;100.00;99172.34;6284743;20;2744052;-46
2024/04/04 02:07:52;;;;;;;;;2.00;2.00;;;;;11.20;100.00;99181.53;6283103;20;2752480;-46
2024/04/04 02:10:20;;;;;;;;;1.75;1.75;;;;;11.33;100.00;99181.50;6300774;20;1803503;-47
2024/04/04 02:12:47;;;;;;;;;1.50;1.50;;;;;11.20;100.00;99182.38;6331318;20;1811864;-49
2024/04/04 02:15:15;;;;;;;;;2.00;2.00;;;;;11.24;100.00;99174.09;6316772;20;2741992;-46
2024/04/04 02:17:42;;;;;;;;;1.50;1.50;;;;;11.23;100.00;99175.06;6299120;20;1803470;-47
2024/04/04 02:20:12;;;;;;;;;2.00;2.00;;;;;11.34;100.00;99175.13;6315291;20;2748328;-48
2024/04/04 02:22:38;;;;;;;;;2.00;2.00;;;;;11.20;100.00;99162.72;6283395;20;2744051;-46
2024/04/04 02:25:07;;;;;;;;;1.00;1.00;;;;;11.33;100.00;99174.28;6285826;20;2731635;-47
2024/04/04 02:27:35;;;;;;;;;2.25;2.25;;;;;11.25;100.00;99176.69;6299505;20;1805605;-47
2024/04/04 02:30:02;;;;;;;;;4.00;4.00;;;;;11.44;100.00;99192.31;6313745;20;2744066;-46
2024/04/04 02:32:30;;;;;;;;;4.00;4.00;;;;;11.20;100.00;99203.03;6279673;20;2752401;-45
2024/04/04 02:34:56;;;;;;;;;1.00;1.00;;;;;11.10;100.00;99194.75;6282275;20;2734652;-46
2024/04/04 02:37:23;;;;;;;;;4.00;4.00;;;;;11.02;100.00;99194.44;6280745;20;2745025;-48
2024/04/04 02:39:49;;;;;;;;;4.00;4.00;;;;;11.23;100.00;99188.50;6282193;20;2752378;-46
2024/04/04 02:42:17;;;;;;;;;3.00;3.00;;;;;11.07;100.00;99186.91;6301129;20;1810797;-46
2024/04/04 02:44:44;;;;;;;;;2.00;2.00;;;;;11.07;100.00;99180.69;6330633;20;1806175;-46
2024/04/04 02:47:12;;;;;;;;;2.50;2.50;;;;;11.14;100.00;99174.78;6329916;20;1811886;-48
2024/04/04 02:49:38;;;;;;;;;4.00;4.00;;;;;11.08;100.00;99169.81;6310986;20;2749319;-47
2024/04/04 02:52:05;;;;;;;;;3.50;3.50;;;;;10.67;100.00;99170.97;6281231;20;2741993;-48
2024/04/04 02:54:32;;;;;;;;;5.00;5.00;;;;;10.66;100.00;99166.53;6281256;20;2748221;-46
2024/04/04 02:56:58;;;;;;;;;3.00;3.00;;;;;10.92;100.00;99175.44;6282661;20;2737874;-47
2024/04/04 02:59:25;;;;;;;;;4.00;4.00;;;;;11.05;100.00;99182.63;6279700;20;2746176;-47
2024/04/04 03:01:52;;;;;;;;;3.00;3.00;;;;;11.08;100.00;99196.69;6282390;20;2737886;-46
2024/04/04 03:04:19;;;;;;;;;5.00;5.00;;;;;11.29;100.00;99188.06;6278415;20;2750266;-48
2024/04/04 03:06:45;;;;;;;;;5.00;5.00;;;;;11.30;100.00;99197.84;6280668;20;2748290;-47
2024/04/04 03:09:12;;;;;;;;;7.00;7.00;;;;;10.93;100.00;99204.03;6279258;20;2732716;-47
2024/04/04 03:11:38;;;;;;;;;7.00;7.00;;;;;10.94;100.00;99210.25;6279740;20;2736736;-47
2024/04/04 03:14:05;;;;;;;;;5.00;5.00;;;;;10.98;100.00;99217.13;6283800;20;2699304;-48
2024/04/04 03:16:31;;;;;;;;;3.00;3.00;;;;;10.94;100.00;99226.38;6280055;20;2737791;-47
2024/04/04 03:18:58;;;;;;;;;4.00;4.00;;;;;10.84;100.00;99225.28;6280466;20;2752359;-45
2024/04/04 03:21:25;;;;;;;;;2.50;2.50;;;;;10.90;100.00;99222.16;6295074;20;1816078;-48
2024/04/04 03:23:52;;;;;;;;;2.00;2.00;;;;;10.89;100.00;99213.25;6311090;20;2752383;-49
2024/04/04 03:26:19;;;;;;;;;2.00;2.00;;;;;10.82;100.00;99233.47;6295399;20;1809803;-48
2024/04/04 03:28:46;;;;;;;;;1.50;1.50;;;;;10.87;100.00;99231.28;6327816;20;1806670;-46
2024/04/04 03:31:13;;;;;;;;;3.00;3.00;;;;;10.81;100.00;99226.38;6311597;20;2748198;-47
2024/04/04 03:33:39;;;;;;;;;1.00;1.00;;;;;10.92;100.00;99228.28;6280694;20;2752391;-48
2024/04/04 03:36:06;;;;;;;;;2.00;2.00;;;;;10.89;100.00;99228.53;6277007;20;2756628;-48
2024/04/04 03:38:33;;;;;;;;;1.50;1.50;;;;;10.86;100.00;99226.91;6280612;20;2748287;-49
2024/04/04 03:41:01;;;;;;;;;1.50;1.50;;;;;10.59;100.00;99224.31;6294529;20;1803470;-45
2024/04/04 03:43:27;;;;;;;;;2.50;2.50;;;;;10.77;100.00;99228.41;6313964;20;2734733;-49
2024/04/04 03:45:54;;;;;;;;;2.00;2.00;;;;;10.77;100.00;99231.09;6286968;20;2739885;-46
2024/04/04 03:48:20;;;;;;;;;2.00;2.00;;;;;10.74;100.00;99225.94;6284553;20;2750289;-48
2024/04/04 03:50:47;;;;;;;;;3.50;3.50;;;;;10.62;100.00;99237.53;6286313;20;2739978;-47
2024/04/04 03:53:14;;;;;;;;;2.00;2.00;;;;;10.53;100.00;99232.78;6286908;20;2748255;-47
2024/04/04 03:55:42;;;;;;;;;2.50;2.50;;;;;10.68;100.00;99237.09;6285543;20;2749293;-46
2024/04/04 03:58:10;;;;;;;;;4.00;4.00;;;;;10.79;100.00;99243.56;6287355;20;2741945;-47
2024/04/04 04:00:36;;;;;;;;;5.00;5.00;;;;;10.77;100.00;99251.72;6285909;20;2745067;-46
2024/04/04 04:03:04;;;;;;;;;9.00;9.00;;;;;10.75;100.00;99259.88;6284304;20;2753514;-51
2024/04/04 04:05:34;;;;;;;;;7.00;7.00;;;;;10.59;100.00;99251.16;6287411;20;2745066;-47
2024/04/04 04:08:00;;;;;;;;;3.00;3.00;;;;;10.55;100.00;99253.19;6284927;20;2739951;-49
2024/04/04 04:10:31;;;;;;;;;2.50;2.50;;;;;10.58;100.00;99262.84;6284633;20;2755584;-52
2024/04/04 04:12:58;;;;;;;;;4.00;4.00;;;;;10.54;100.00;99259.53;6285690;20;2741920;-51
2024/04/04 04:15:26;;;;;;;;;3.00;3.00;;;;;10.47;100.00;99257.38;6284239;20;2751371;-51
2024/04/04 04:17:53;;;;;;;;;3.00;3.00;;;;;10.46;100.00;99269.09;6285395;20;2739879;-50
2024/04/04 04:23:05;;;;;;;;;3.00;3.00;;;;;10.53;100.00;99265.88;6286120;20;2738882;-51
2024/04/04 04:25:32;;;;;;;;;3.00;3.00;;;;;10.36;100.00;99273.34;6302874;20;1814980;-48
2024/04/04 04:27:59;;;;;;;;;4.00;4.00;;;;;10.45;100.00;99276.28;6333139;20;1807793;-51
2024/04/04 04:30:26;;;;;;;;;3.00;3.00;;;;;10.36;100.00;99273.34;6318322;20;2752503;-50
2024/04/04 04:32:52;;;;;;;;;4.50;4.50;;;;;10.43;100.00;99275.50;6285431;20;2750279;-48
2024/04/04 04:35:22;;;;;;;;;3.00;3.00;;;;;10.39;100.00;99275.81;6285050;20;2739877;-47
2024/04/04 04:37:50;;;;;;;;;3.00;3.00;;;;;10.47;100.00;99270.78;6300096;20;1813944;-47
2024/04/04 04:40:17;;;;;;;;;5.00;5.00;;;;;10.47;100.00;99286.88;6317524;20;2724223;-50
2024/04/04 04:42:45;;;;;;;;;3.00;3.00;;;;;10.43;100.00;99288.94;6302655;20;1803165;-48
2024/04/04 04:45:11;;;;;;;;;4.00;4.00;;;;;10.50;100.00;99286.69;6316661;20;2744123;-47
2024/04/04 04:47:38;;;;;;;;;2.00;2.00;;;;;10.57;100.00;99282.63;6284531;20;2743984;-47
2024/04/04 04:50:05;;;;;;;;;2.00;2.00;;;;;10.61;100.00;99289.53;6285912;20;2743154;-49
2024/04/04 04:52:31;;;;;;;;;6.00;6.00;;;;;10.82;100.00;99294.34;6286270;20;2739969;-46
2024/04/04 04:54:58;;;;;;;;;3.00;3.00;;;;;10.87;100.00;99290.38;6284720;20;2749241;-46
2024/04/04 04:57:24;;;;;;;;;3.50;3.50;;;;;10.78;100.00;99293.72;6287260;20;2749241;-47
2024/04/04 04:59:51;;;;;;;;;2.00;2.00;;;;;11.46;98.53;99302.44;6284841;20;2744049;-49
2024/04/04 05:02:18;;;;;;;;;3.50;3.50;;;;;11.76;94.71;99299.34;6283382;20;2750247;-47
2024/04/04 05:04:44;;;;;;;;;5.00;5.00;;;;;12.04;92.96;99309.00;6285124;20;2739899;-49
2024/04/04 05:07:12;;;;;;;;;4.00;4.00;;;;;13.32;86.32;99309.13;6285393;20;2744023;-49
2024/04/04 05:09:38;;;;;;;;;3.00;3.00;;;;;14.97;74.91;99320.78;6282423;20;2748202;-49
2024/04/04 05:12:05;;;;;;;;;3.50;3.50;;;;;13.42;80.48;99321.84;6285677;20;2746173;-47
2024/04/04 05:14:33;;;;;;;;;0.50;0.50;;;;;13.01;84.70;99320.56;6300507;20;1807671;-47
2024/04/04 05:16:59;;;;;;;;;4.00;4.00;;;;;13.01;85.56;99318.72;6315832;20;2754485;-47
2024/04/04 05:19:26;;;;;;;;;3.00;3.00;;;;;12.79;87.07;99327.56;6285211;20;2739984;-49
2024/04/04 05:21:52;;;;;;;;;4.00;4.00;;;;;12.60;89.29;99324.56;6282558;20;2754449;-46
2024/04/04 05:24:19;;;;;;;;;3.00;3.00;;;;;12.54;90.08;99328.59;6285078;20;2736255;-48
2024/04/04 05:26:45;;;;;;;;;4.50;4.00;;;;;13.51;86.04;99334.63;6282673;20;2752408;-48
2024/04/04 05:29:12;;;;;;;;;2.50;2.50;;;;;13.22;84.34;99329.66;6284483;20;2746152;-46
2024/04/04 05:31:42;;;;;;;;;4.00;4.00;;;;;12.80;87.76;99333.84;6284972;20;2745137;-48
2024/04/04 05:34:09;;;;;;;;;5.00;5.00;;;;;12.68;88.68;99331.09;6281272;20;2748665;-47
2024/04/04 05:36:36;;;;;;;;;3.25;3.25;;;;;12.78;88.64;99327.69;6300069;20;1809870;-49
2024/04/04 05:39:07;;;;;;;;;4.00;4.00;;;;;12.73;88.49;99322.66;6312832;20;2752445;-48
2024/04/04 05:41:35;;;;;;;;;4.00;4.00;;;;;12.54;90.19;99327.72;6285179;20;2743021;-49
2024/04/04 05:44:01;;;;;;;;;4.00;4.00;;;;;12.63;90.10;99337.81;6282999;20;2755582;-48
2024/04/04 05:46:28;;;;;;;;;3.00;3.00;;;;;12.52;90.23;99341.31;6282905;20;2749642;-46
2024/04/04 05:48:56;;;;;;;;;4.00;4.00;;;;;12.71;89.18;99332.69;6281689;20;2756596;-46
2024/04/04 05:51:24;;;;;;;;;3.00;3.00;;;;;12.77;89.28;99334.03;6285572;20;2742023;-47
2024/04/04 05:53:51;;;;;;;;;3.50;3.50;;;;;12.88;88.56;99337.66;6282707;20;2756569;-47
2024/04/04 05:56:18;;;;;;;;;5.50;5.50;;;;;13.10;86.29;99341.38;6302130;20;1810925;-47
2024/04/04 05:58:45;;;;;;;;;3.50;3.50;;;;;13.11;86.47;99343.09;6314217;20;2748235;-44
2024/04/04 06:01:11;;;;;;;;;5.00;5.00;;;;;13.33;85.24;99351.25;6270843;20;2751370;-49
2024/04/04 06:03:39;;;;;;;;;5.00;5.00;;;;;13.57;83.61;99347.63;6282545;20;2739930;-47
2024/04/04 06:06:06;;;;;;;;;4.00;4.00;;;;;13.73;83.27;99356.19;6284233;20;2740960;-50
2024/04/04 06:08:33;;;;;;;;;5.00;5.00;;;;;13.41;85.66;99360.59;6282077;20;2738818;-49
2024/04/04 06:10:59;;;;;;;;;5.00;5.00;;;;;13.82;84.35;99363.56;6284501;20;2741950;-46
2024/04/04 06:13:27;;;;;;;;;5.00;5.00;;;;;13.99;83.47;99364.03;6280172;20;2742954;-51
2024/04/04 06:16:01;;;;;;;;;6.50;6.50;;;;;13.82;84.48;99374.38;6280046;20;2737885;-47
2024/04/04 06:18:29;;;;;;;;;5.00;5.00;;;;;14.35;81.28;99378.22;6275090;20;2729545;-49
2024/04/04 06:20:55;;;;;;;;;6.50;6.50;;;;;14.55;79.50;99377.47;6277312;20;2741977;-49
2024/04/04 06:23:22;;;;;;;;;5.00;5.00;;;;;14.29;80.38;99371.47;6274575;20;2747240;-48
2024/04/04 06:25:48;;;;;;;;;5.00;5.00;;;;;14.69;77.74;99382.59;6279314;20;2736780;-48
2024/04/04 06:28:15;;;;;;;;;5.00;5.00;;;;;14.49;79.13;99375.25;6274790;20;2746190;-48
2024/04/04 06:30:41;;;;;;;;;4.00;4.00;;;;;14.32;79.98;99389.25;6276586;20;2748202;-52
2024/04/04 06:33:08;;;;;;;;;4.00;4.00;;;;;14.41;80.93;99380.44;6274719;20;2736756;-49
2024/04/04 06:35:34;;;;;;;;;4.00;4.00;;;;;14.40;77.46;99386.78;6273844;20;2757016;-48
2024/04/04 06:38:01;;;;;;;;;2.50;2.50;;;;;14.08;75.66;99384.03;6277326;20;2752494;-51
2024/04/04 06:40:31;;;;;;;;;7.00;7.00;;;;;14.12;75.05;99391.75;6277768;20;2735679;-49
2024/04/04 06:43:01;;;;;;;;;4.00;4.00;;;;;14.49;74.72;99388.75;6273522;20;2752339;-51
2024/04/04 06:45:28;;;;;;;;;3.00;3.00;;;;;14.64;73.97;99389.34;6293764;20;1802296;-51
2024/04/04 06:47:57;;;;;;;;;3.00;3.00;;;;;14.71;73.13;99399.50;6307341;20;2735747;-50
2024/04/04 06:50:28;;;;;;;;;3.00;3.00;;;;;14.38;78.30;99399.59;6278785;20;2738874;-49
2024/04/04 06:52:55;;;;;;;;;3.00;3.00;;;;;14.43;78.33;99391.97;6277296;20;2735798;-49
2024/04/04 06:55:23;;;;;;;;;1.50;1.50;;;;;14.15;79.71;99410.41;6279368;20;2737783;-52
2024/04/04 06:57:49;;;;;;;;;3.00;3.00;;;;;14.17;76.23;99411.16;6276496;20;2747608;-49
2024/04/04 07:00:17;;;;;;;;;2.25;2.25;;;;;14.15;75.80;99421.22;6295237;20;1807720;-51
2024/04/04 07:02:43;;;;;;;;;4.50;4.50;;;;;14.28;74.66;99423.78;6306036;20;2751342;-49
2024/04/04 07:05:10;;;;;;;;;2.00;2.00;;;;;14.12;74.85;99417.91;6279475;20;2739631;-49
2024/04/04 07:07:37;;;;;;;;;3.00;3.00;;;;;14.23;73.80;99423.28;6276997;20;2736776;-50
2024/04/04 07:10:07;;;;;;;;;3.00;3.00;;;;;14.37;72.82;99424.84;6285556;20;2736405;-51
2024/04/04 07:12:34;;;;;;;;;1.00;1.00;;;;;14.07;72.90;99430.91;6276917;20;2735744;-49
2024/04/04 07:15:01;;;;;;;;;5.00;5.00;;;;;14.25;72.85;99427.59;6276374;20;2747181;-49
2024/04/04 07:17:31;;;;;;;;;2.25;2.25;;;;;14.62;71.70;99424.59;6294329;20;1807691;-48
2024/04/04 07:19:58;;;;;;;;;8.00;8.00;;;;;15.04;69.65;99424.72;6314894;20;2741934;-48
2024/04/04 07:22:25;;;;;;;;;4.00;4.00;;;;;14.82;70.24;99413.97;6279556;20;2750400;-47
2024/04/04 07:24:52;;;;;;;;;13.33;13.33;;;;;14.97;70.32;99423.50;6280456;20;2790918;-48
2024/04/04 07:27:20;;;;;;;;;16.50;16.00;;;;;15.41;69.39;99424.28;6308380;20;2820094;-52
2024/04/04 07:29:49;;;;;;;;;2.00;2.00;;;;;16.07;64.62;99421.28;6284161;20;2740967;-48
2024/04/04 07:32:16;;;;;;;;;6.00;6.00;;;;;16.26;64.64;99416.91;6283044;20;2733641;-48
2024/04/04 07:34:42;;;;;;;;;2.00;2.00;;;;;15.71;65.65;99418.09;6281247;20;2747297;-50
2024/04/04 07:37:09;;;;;;;;;11.50;11.50;;;;;15.72;65.35;99419.81;6282529;20;2796124;-49
2024/04/04 07:39:36;;;;;;;;;2.00;2.00;;;;;15.41;66.12;99418.88;6283732;20;2737821;-48
2024/04/04 07:42:04;;;;;;;;;2.00;2.00;;;;;15.25;67.77;99423.88;6279070;20;2739889;-49
2024/04/04 07:44:30;;;;;;;;;2.00;2.00;;;;;14.97;70.42;99420.81;6282772;20;2744120;-48
2024/04/04 07:46:57;;;;;;;;;6.00;3.00;;;;;14.62;72.23;99419.19;6280070;20;2748220;-49
2024/04/04 07:49:24;;;;;;;;;3.50;2.00;;;;;15.46;69.75;99422.03;6282803;20;2752361;-48
2024/04/04 07:51:51;;;;;;;;;1.75;1.75;;;;;15.97;65.67;99429.34;6299501;20;1806662;-49
2024/04/04 07:54:17;;;;;;;;;3.00;3.00;;;;;17.08;61.22;99441.91;6312929;20;2749261;-48
2024/04/04 07:56:44;;;;;;;;;3.50;3.50;;;;;16.82;61.83;99433.47;6282702;20;2744119;-49
2024/04/04 07:59:10;;;;;;;;;3.00;3.00;;;;;16.45;63.62;99439.50;6282570;20;2731585;-48
2024/04/04 08:01:37;;;;;;;;;2.00;2.00;;;;;16.38;64.46;99446.47;6283113;20;2737817;-48
2024/04/04 08:04:04;;;;;;;;;3.50;3.50;;;;;15.92;65.08;99449.69;6284025;20;2754536;-50
2024/04/04 08:06:30;;;;;;;;;4.00;4.00;;;;;15.98;65.60;99444.63;6283246;20;2746124;-51
2024/04/04 08:08:57;;;;;;;;;3.50;3.50;;;;;16.13;65.42;99445.09;6283242;20;2750350;-49
2024/04/04 08:11:24;;;;;;;;;3.00;3.00;;;;;16.17;66.24;99456.53;6285014;20;2728477;-49
2024/04/04 08:13:51;;;;;;;;;2.00;2.00;;;;;15.89;65.62;99458.94;6284816;20;2756603;-51
2024/04/04 08:16:17;;;;;;;;;4.50;4.00;;;;;16.10;64.96;99458.06;6283919;20;2750457;-49
2024/04/04 08:18:44;;;;;;;;;2.50;2.50;;;;;16.31;63.75;99461.56;6284251;20;2750342;-51
2024/04/04 08:21:14;;;;;;;;;2.00;2.00;;;;;16.32;63.77;99468.69;6283679;20;2734370;-50
2024/04/04 08:23:41;;;;;;;;;4.00;4.00;;;;;16.90;62.54;99476.16;6284724;20;2752378;-47
2024/04/04 08:26:07;;;;;;;;;3.50;3.50;;;;;17.15;62.54;99476.66;6282675;20;2753388;-51
2024/04/04 08:28:34;;;;;;;;;4.00;4.00;;;;;16.69;63.75;99481.66;6281628;20;2742111;-49
2024/04/04 08:31:09;;;;;;;;;5.00;5.00;;;;;16.15;65.02;99478.31;6281969;20;2734669;-51
2024/04/04 08:33:35;;;;;;;;;4.00;4.00;;;;;16.29;66.71;99468.97;6281668;20;2732751;-53
2024/04/04 08:36:02;;;;;;;;;4.00;4.00;;;;;16.32;65.99;99474.09;6279149;20;2743010;-52
2024/04/04 08:38:29;;;;;;;;;2.00;2.00;;;;;16.79;65.51;99474.44;6281981;20;2746203;-52
2024/04/04 08:41:09;;;;;;;;;6.00;4.00;;;;;16.75;64.02;99481.13;6281646;20;2745141;-48
2024/04/04 08:43:37;;;;;;;;;1.00;0.00;;;;;17.87;60.22;99481.59;6282036;20;2727827;-49
2024/04/04 08:46:07;;;;;;;;;4.00;4.00;;;;;18.77;60.01;99479.28;6281815;20;2739881;-51
2024/04/04 08:48:36;;;;;;;;;5.00;5.00;;;;;18.89;57.46;99482.66;6304779;20;2737850;-50
2024/04/04 08:51:04;;;;;;;;;3.00;3.00;;;;;18.54;57.22;99479.69;6333983;20;2737839;-51
2024/04/04 08:53:31;;;;;;;;;4.00;2.00;;;;;18.79;56.06;99471.84;6313652;20;2738931;-52
2024/04/04 08:56:00;;;;;;;;;2.00;2.00;;;;;19.38;54.40;99473.16;6285998;20;2750299;-50
2024/04/04 08:58:28;;;;;;;;;2.00;2.00;;;;;18.50;55.79;99466.53;6311476;20;2739870;-48
2024/04/04 09:00:55;;;;;;;;;1.50;1.50;;;;;18.32;56.89;99463.75;6312087;20;2731612;-49
2024/04/04 09:03:22;;;;;;;;;1.67;1.00;;;;;18.07;55.07;99470.72;6286274;20;2730526;-49
2024/04/04 09:05:52;;;;;;;;;0.00;0.00;;;;;18.09;54.68;99469.56;6313135;20;2731548;-49
2024/04/04 09:08:19;;;;;;;;;1.00;1.00;;;;;18.20;53.97;99474.81;6313728;20;2731560;-47
2024/04/04 09:10:48;;;;;;;;;1.00;1.00;;;;;18.35;54.47;99477.03;6312744;20;2734733;-51
2024/04/04 09:13:17;;;;;;;;;1.67;0.67;;;;;18.28;54.95;99475.94;6313203;20;2732611;-50
2024/04/04 09:15:44;;;;;;;;;0.00;0.00;;;;;19.14;51.19;99472.88;6313865;20;2721121;-51
2024/04/04 09:18:12;;;;;;;;;0.00;0.00;;;;;19.02;51.69;99478.56;6312903;20;2735733;-50
2024/04/04 09:20:41;;;;;;;;;0.00;0.00;;;;;19.52;50.27;99478.03;6310264;20;2726429;-50
2024/04/04 09:23:10;;;;;;;;;0.00;0.00;;;;;19.95;49.22;99475.47;6310295;20;2732578;-52
2024/04/04 09:25:38;;;;;;;;;0.00;0.00;;;;;19.19;49.91;99476.00;6312767;20;2731632;-48
2024/04/04 09:28:08;;;;;;;;;0.00;0.00;;;;;19.32;50.77;99481.91;6310423;20;2731609;-49
2024/04/04 09:30:38;;;;;;;;;0.00;0.00;;;;;19.01;51.11;99476.88;6313453;20;2722312;-50
2024/04/04 09:33:07;;;;;;;;;0.00;0.00;;;;;19.01;50.26;99481.41;6311664;20;2735758;-47
2024/04/04 09:35:34;;;;;;;;;0.00;0.00;;;;;18.18;50.74;99465.94;6309918;20;2735754;-48
2024/04/04 09:38:01;;;;;;;;;0.00;0.00;;;;;18.82;50.69;99476.97;6312183;20;2712828;-49
2024/04/04 09:40:29;;;;;;;;;0.00;0.00;;;;;18.45;51.17;99475.13;6313068;20;2729483;-46
2024/04/04 09:43:01;;;;;;;;;1.00;0.00;;;;;18.43;51.29;99479.84;6308403;20;2724332;-48
2024/04/04 09:45:28;;;;;;;;;0.00;0.00;;;;;18.38;52.24;99479.47;6313193;20;2727364;-48
2024/04/04 09:47:56;;;;;;;;;0.00;0.00;;;;;18.84;51.17;99485.84;6310951;20;2733742;-47
2024/04/04 09:50:23;;;;;;;;;1.00;1.00;;;;;18.23;52.28;99470.09;6312483;20;2727373;-47
2024/04/04 09:52:50;;;;;;;;;0.00;0.00;;;;;18.40;52.50;99472.88;6312105;20;2727405;-46
2024/04/04 09:55:20;;;;;;;;;0.67;0.00;;;;;18.35;53.09;99469.75;6313756;20;2733718;-46
2024/04/04 09:57:49;;;;;;;;;0.00;0.00;;;;;19.40;51.04;99473.81;6310078;20;2727383;-49
2024/04/04 10:00:18;;;;;;;;;0.33;0.00;;;;;19.10;50.25;99469.63;6312912;20;2731583;-49
2024/04/04 10:02:55;;;;;;;;;0.00;0.00;;;;;19.93;49.59;99472.94;6310691;20;2733692;-47
2024/04/04 10:05:30;;;;;;;;;0.00;0.00;;;;;19.46;49.42;99475.94;6313911;20;2725313;-50
2024/04/04 10:08:13;;;;;;;;;0.00;0.00;;;;;19.10;50.68;99474.22;6312875;20;2722227;-47
2024/04/04 10:10:43;;;;;;;;;0.00;0.00;;;;;20.15;49.35;99476.13;6311422;20;2730540;-48
2024/04/04 10:13:13;;;;;;;;;1.00;0.00;;;;;19.67;48.37;99466.63;6311125;20;2731565;-49
2024/04/04 10:15:50;;;;;;;;;0.00;0.00;;;;;21.11;46.87;99475.00;6312041;20;2727341;-48
2024/04/04 10:18:20;;;;;;;;;0.00;0.00;;;;;20.83;46.23;99476.16;6311265;20;2731682;-48
2024/04/04 10:20:53;;;;;;;;;0.00;0.00;;;;;21.15;45.79;99474.53;6334942;20;2724272;-49
2024/04/04 10:23:30;;;;;;;;;0.00;0.00;;;;;20.31;48.98;99475.38;6308220;20;2728500;-52
2024/04/04 10:26:09;;;;;;;;;1.00;0.00;;;;;19.65;48.49;99463.16;6311930;20;2729537;-50
2024/04/04 10:28:37;;;;;;;;;0.00;0.00;;;;;19.53;49.42;99471.56;6307951;20;2732667;-48
2024/04/04 10:31:04;;;;;;;;;0.00;0.00;;;;;18.97;49.61;99470.00;6311984;20;2735814;-46
2024/04/04 10:33:32;;;;;;;;;0.00;0.00;;;;;19.08;50.26;99472.50;6311008;20;2729483;-46
2024/04/04 10:36:01;;;;;;;;;0.00;0.00;;;;;19.00;50.04;99475.13;6307823;20;2724231;-50
2024/04/04 10:38:28;;;;;;;;;0.00;0.00;;;;;18.63;51.27;99475.19;6310539;20;2735804;-48
2024/04/04 10:40:59;;;;;;;;;2.00;1.00;;;;;18.38;52.41;99474.03;6309875;20;2726385;-46
2024/04/04 10:43:26;;;;;;;;;0.00;0.00;;;;;17.74;53.60;99475.59;6309532;20;2727409;-49
2024/04/04 10:45:54;;;;;;;;;0.00;0.00;;;;;17.93;54.28;99485.59;6310625;20;2733622;-48
2024/04/04 10:48:21;;;;;;;;;0.00;0.00;;;;;17.81;54.07;99490.34;6311352;20;2731573;-50
2024/04/04 10:50:48;;;;;;;;;1.00;0.00;;;;;17.60;54.88;99487.78;6309924;20;2735712;-48
2024/04/04 10:53:15;;;;;;;;;1.00;0.00;;;;;17.57;54.38;99489.94;6286332;20;2723265;-49
2024/04/04 10:55:42;;;;;;;;;0.00;0.00;;;;;17.75;54.36;99483.63;6286522;20;2730500;-47
2024/04/04 10:58:10;;;;;;;;;0.00;0.00;;;;;17.80;54.77;99474.19;6308582;20;2726331;-48
2024/04/04 11:00:39;;;;;;;;;0.00;0.00;;;;;17.64;55.78;99485.63;6310109;20;2736256;-48
2024/04/04 11:03:09;;;;;;;;;0.00;0.00;;;;;17.32;56.61;99475.91;6307481;20;2726396;-47
2024/04/04 11:05:37;;;;;;;;;2.00;0.00;;;;;17.53;56.31;99476.63;6282788;20;2731646;-49
2024/04/04 11:08:07;;;;;;;;;3.00;0.00;;;;;17.81;56.45;99475.91;6283785;20;2727394;-46
2024/04/04 11:10:34;;;;;;;;;1.00;0.00;;;;;17.73;56.49;99480.19;6287053;20;2724239;-47
2024/04/04 11:13:02;;;;;;;;;0.00;0.00;;;;;17.92;56.28;99478.47;6284665;20;2724351;-48
2024/04/04 11:15:29;;;;;;;;;0.00;0.00;;;;;18.27;55.46;99477.78;6310093;20;2727385;-47
2024/04/04 11:17:58;;;;;;;;;0.00;0.00;;;;;18.06;55.35;99477.13;6283587;20;2731644;-47